createdAt,value
2022-08-03T00:01:42.798Z,100549.84
2022-08-03T00:04:12.156Z,100543.75
2022-08-03T00:06:39.995Z,100543.25
2022-08-03T00:09:08.166Z,100546.47
2022-08-03T00:11:36.562Z,100542.56
2022-08-03T00:14:06.169Z,100546.53
2022-08-03T00:16:33.979Z,100540.78
2022-08-03T00:19:02.344Z,100551.97
2022-08-03T00:21:30.471Z,100550.31
2022-08-03T00:23:58.174Z,100548.34
2022-08-03T00:26:25.893Z,100546.81
2022-08-03T00:28:53.574Z,100548.94
2022-08-03T00:31:40.278Z,100547.78
2022-08-03T00:34:10.422Z,100547.44
2022-08-03T00:36:40.198Z,100552.25
2022-08-03T00:39:07.818Z,100544.72
2022-08-03T00:41:35.555Z,100540.81
2022-08-03T00:44:03.226Z,100542.47
2022-08-03T00:46:32.398Z,100545.19
2022-08-03T00:49:00.246Z,100540.25
2022-08-03T00:51:28.979Z,100544.59
2022-08-03T00:53:56.674Z,100537.66
2022-08-03T00:56:24.489Z,100536.50
2022-08-03T00:58:53.622Z,100534.63
2022-08-03T01:01:21.606Z,100530.50
2022-08-03T01:03:50.699Z,100535.09
2022-08-03T01:06:20.257Z,100534.63
2022-08-03T01:08:53.527Z,100530.03
2022-08-03T01:11:33.360Z,100534.63
2022-08-03T01:14:18.874Z,100522.94
2022-08-03T01:16:57.943Z,100525.66
2022-08-03T01:19:50.137Z,100530.03
2022-08-03T01:23:06.534Z,100523.69
2022-08-03T01:25:48.316Z,100523.22
2022-08-03T01:28:40.213Z,100528.13
2022-08-03T01:31:12.586Z,100520.69
2022-08-03T01:33:44.376Z,100524.69
2022-08-03T01:36:15.655Z,100520.94
2022-08-03T01:38:46.227Z,100521.41
2022-08-03T01:41:21.132Z,100519.63
2022-08-03T01:44:27.547Z,100515.38
2022-08-03T01:46:48.971Z,100513.41
2022-08-03T01:49:19.006Z,100514.09
2022-08-03T01:51:57.712Z,100513.03
2022-08-03T01:54:34.037Z,100508.81
2022-08-03T01:57:02.665Z,100507.75
2022-08-03T01:59:31.552Z,100513.03
2022-08-03T02:02:16.116Z,100510.56
2022-08-03T02:04:51.477Z,100517.38
2022-08-03T02:07:20.487Z,100509.00
2022-08-03T02:09:51.940Z,100513.16
2022-08-03T02:12:20.739Z,100507.84
2022-08-03T02:14:51.164Z,100512.19
2022-08-03T02:17:39.335Z,100509.25
2022-08-03T02:20:09.714Z,100507.81
2022-08-03T02:22:41.398Z,100514.66
2022-08-03T02:25:10.496Z,100514.78
2022-08-03T02:27:43.610Z,100512.66
2022-08-03T02:30:13.430Z,100511.69
2022-08-03T02:32:45.052Z,100504.66
2022-08-03T02:35:14.789Z,100504.88
2022-08-03T02:37:49.854Z,100514.19
2022-08-03T02:40:20.785Z,100513.00
2022-08-03T02:42:52.499Z,100508.41
2022-08-03T02:45:22.407Z,100509.00
2022-08-03T02:47:56.567Z,100498.88
2022-08-03T02:50:25.456Z,100500.38
2022-08-03T02:52:54.987Z,100498.16
2022-08-03T02:55:23.869Z,100497.34
2022-08-03T02:57:52.640Z,100495.75
2022-08-03T03:00:27.610Z,100499.53
2022-08-03T03:03:00.662Z,100496.22
2022-08-03T03:05:55.377Z,100499.16
2022-08-03T03:08:25.834Z,100488.09
2022-08-03T03:10:55.856Z,100491.25
2022-08-03T03:13:24.213Z,100497.59
2022-08-03T03:15:53.184Z,100502.28
2022-08-03T03:18:23.094Z,100500.41
2022-08-03T03:20:52.857Z,100505.00
2022-08-03T03:23:22.436Z,100508.16
2022-08-03T03:25:50.856Z,100503.22
2022-08-03T03:28:18.839Z,100498.97
2022-08-03T03:30:52.564Z,100501.34
2022-08-03T03:33:22.777Z,100502.84
2022-08-03T03:35:51.583Z,100503.53
2022-08-03T03:38:19.547Z,100503.16
2022-08-03T03:40:48.083Z,100497.31
2022-08-03T03:43:15.875Z,100508.47
2022-08-03T03:45:44.276Z,100512.72
2022-08-03T03:48:12.067Z,100509.34
2022-08-03T03:50:41.301Z,100504.16
2022-08-03T03:53:11.515Z,100508.63
2022-08-03T03:56:02.099Z,100516.50
2022-08-03T03:58:27.891Z,100512.09
2022-08-03T04:00:55.735Z,100513.03
2022-08-03T04:03:23.875Z,100528.16
2022-08-03T04:06:10.559Z,100519.72
2022-08-03T04:08:55.700Z,100516.31
2022-08-03T04:11:29.312Z,100520.06
2022-08-03T04:14:04.463Z,100520.53
2022-08-03T04:16:37.322Z,100517.94
2022-08-03T04:19:11.398Z,100519.19
2022-08-03T04:21:44.567Z,100517.31
2022-08-03T04:24:14.537Z,100521.91
2022-08-03T04:26:44.413Z,100518.16
2022-08-03T04:29:13.892Z,100518.38
2022-08-03T04:31:44.296Z,100526.09
2022-08-03T04:34:12.063Z,100523.41
2022-08-03T04:36:48.723Z,100523.19
2022-08-03T04:39:20.786Z,100525.88
2022-08-03T04:42:06.925Z,100531.06
2022-08-03T04:44:40.354Z,100533.16
2022-08-03T04:47:08.451Z,100534.81
2022-08-03T04:49:38.262Z,100529.53
2022-08-03T04:52:09.938Z,100531.06
2022-08-03T04:54:41.515Z,100532.72
2022-08-03T04:57:09.670Z,100520.53
2022-08-03T04:59:40.824Z,100524.41
2022-08-03T05:02:08.727Z,100530.44
2022-08-03T05:04:50.837Z,100524.94
2022-08-03T05:07:24.724Z,100533.41
2022-08-03T05:10:01.348Z,100537.78
2022-08-03T05:12:33.234Z,100532.00
2022-08-03T05:15:01.401Z,100540.00
2022-08-03T05:17:29.343Z,100536.25
2022-08-03T05:19:57.685Z,100534.97
2022-08-03T05:22:26.903Z,100530.78
2022-08-03T05:24:54.563Z,100540.88
2022-08-03T05:27:24.431Z,100547.50
2022-08-03T05:29:52.302Z,100536.19
2022-08-03T05:32:20.670Z,100536.94
2022-08-03T05:34:48.601Z,100541.09
2022-08-03T05:37:16.368Z,100540.41
2022-08-03T05:39:45.425Z,100545.34
2022-08-03T05:42:13.079Z,100556.78
2022-08-03T05:44:43.003Z,100545.50
2022-08-03T05:47:10.785Z,100547.03
2022-08-03T05:49:38.573Z,100550.69
2022-08-03T05:52:15.885Z,100549.19
2022-08-03T05:54:56.647Z,100545.97
2022-08-03T05:57:25.549Z,100545.53
2022-08-03T05:59:55.675Z,100553.66
2022-08-03T06:02:26.314Z,100545.06
2022-08-03T06:04:53.929Z,100545.78
2022-08-03T06:07:21.679Z,100551.31
2022-08-03T06:09:56.604Z,100546.84
2022-08-03T06:12:41.071Z,100546.72
2022-08-03T06:15:11.492Z,100546.19
2022-08-03T06:17:47.070Z,100543.34
2022-08-03T06:20:15.242Z,100549.34
2022-08-03T06:22:50.717Z,100549.47
2022-08-03T06:25:21.251Z,100546.66
2022-08-03T06:27:49.361Z,100546.50
2022-08-03T06:30:21.219Z,100546.84
2022-08-03T06:32:52.218Z,100547.22
2022-08-03T06:35:20.945Z,100553.00
2022-08-03T06:37:49.976Z,100548.50
2022-08-03T06:40:21.631Z,100546.97
2022-08-03T06:42:53.352Z,100550.50
2022-08-03T06:45:21.300Z,100550.00
2022-08-03T06:47:50.438Z,100556.38
2022-08-03T06:50:23.001Z,100548.94
2022-08-03T06:52:53.808Z,100547.88
2022-08-03T06:55:21.869Z,100550.69
2022-08-03T06:57:49.577Z,100543.75
2022-08-03T07:00:19.201Z,100553.03
2022-08-03T07:02:47.834Z,100558.31
2022-08-03T07:05:16.250Z,100561.97
2022-08-03T07:07:44.361Z,100557.69
2022-08-03T07:10:12.623Z,100562.16
2022-08-03T07:12:55.967Z,100561.19
2022-08-03T07:15:53.970Z,100554.78
2022-08-03T07:18:13.876Z,100559.81
2022-08-03T07:20:42.217Z,100562.13
2022-08-03T07:23:10.145Z,100555.66
2022-08-03T07:25:47.140Z,100568.84
2022-08-03T07:28:14.941Z,100562.47
2022-08-03T07:30:43.979Z,100555.81
2022-08-03T07:33:11.670Z,100564.03
2022-08-03T07:35:39.359Z,100563.84
2022-08-03T07:38:07.064Z,100566.44
2022-08-03T07:40:34.907Z,100559.75
2022-08-03T07:43:03.486Z,100554.38
2022-08-03T07:45:31.271Z,100558.84
2022-08-03T07:48:00.459Z,100561.16
2022-08-03T07:50:28.244Z,100564.31
2022-08-03T07:52:57.826Z,100553.69
2022-08-03T07:55:27.931Z,100554.03
2022-08-03T07:58:07.528Z,100555.50
2022-08-03T08:00:35.216Z,100555.97
2022-08-03T08:03:05.105Z,100547.91
2022-08-03T08:05:33.786Z,100553.44
2022-08-03T08:08:01.626Z,100546.50
2022-08-03T08:10:29.701Z,100547.06
2022-08-03T08:13:00.442Z,100552.34
2022-08-03T08:15:28.247Z,100544.06
2022-08-03T08:17:57.602Z,100543.59
2022-08-03T08:20:31.501Z,100546.09
2022-08-03T08:23:03.569Z,100542.91
2022-08-03T08:25:41.628Z,100541.16
2022-08-03T08:28:29.926Z,100547.53
2022-08-03T08:31:00.773Z,100539.63
2022-08-03T08:33:42.090Z,100546.31
2022-08-03T08:36:17.666Z,100538.75
2022-08-03T08:38:45.549Z,100539.88
2022-08-03T08:41:14.995Z,100541.03
2022-08-03T08:43:43.686Z,100539.97
2022-08-03T08:46:23.259Z,100542.53
2022-08-03T08:49:03.797Z,100530.34
2022-08-03T08:51:54.835Z,100533.13
2022-08-03T08:54:30.687Z,100528.81
2022-08-03T08:57:03.159Z,100525.56
2022-08-03T08:59:49.026Z,100528.13
2022-08-03T09:02:18.189Z,100523.00
2022-08-03T09:04:48.754Z,100521.94
2022-08-03T09:07:20.351Z,100527.16
2022-08-03T09:10:11.039Z,100531.81
2022-08-03T09:12:42.164Z,100525.59
2022-08-03T09:15:22.537Z,100528.59
2022-08-03T09:17:51.968Z,100531.63
2022-08-03T09:20:21.035Z,100527.53
2022-08-03T09:23:59.016Z,100527.25
2022-08-03T09:26:01.553Z,100526.41
2022-08-03T09:29:01.604Z,100522.06
2022-08-03T09:31:31.076Z,100517.69
2022-08-03T09:34:01.122Z,100520.09
2022-08-03T09:36:35.764Z,100522.00
2022-08-03T09:39:06.511Z,100518.69
2022-08-03T09:41:34.356Z,100514.56
2022-08-03T09:44:02.090Z,100518.06
2022-08-03T09:46:31.914Z,100512.59
2022-08-03T09:49:12.757Z,100513.16
2022-08-03T09:52:32.645Z,100507.59
2022-08-03T09:54:31.436Z,100502.03
2022-08-03T09:56:59.723Z,100501.09
2022-08-03T09:59:29.833Z,100507.91
2022-08-03T10:01:59.738Z,100502.91
2022-08-03T10:04:27.825Z,100504.75
2022-08-03T10:07:07.261Z,100504.97
2022-08-03T10:09:36.649Z,100503.00
2022-08-03T10:12:11.674Z,100502.72
2022-08-03T10:14:41.720Z,100494.69
2022-08-03T10:17:10.846Z,100500.84
2022-08-03T10:19:42.395Z,100493.91
2022-08-03T10:22:14.349Z,100488.13
2022-08-03T10:24:51.067Z,100486.13
2022-08-03T10:27:20.833Z,100484.19
2022-08-03T10:29:54.199Z,100483.22
2022-08-03T10:32:28.008Z,100473.75
2022-08-03T10:35:20.466Z,100479.56
2022-08-03T10:37:57.261Z,100474.56
2022-08-03T10:43:20.790Z,100467.63
2022-08-03T10:45:48.564Z,100464.47
2022-08-03T10:48:17.455Z,100464.19
2022-08-03T10:50:45.474Z,100456.97
2022-08-03T10:53:14.704Z,100458.50
2022-08-03T10:56:05.790Z,100455.59
2022-08-03T10:58:57.150Z,100449.81
2022-08-03T11:01:58.324Z,100442.75
2022-08-03T11:04:30.702Z,100447.88
2022-08-03T11:07:22.101Z,100436.91
2022-08-03T11:09:51.504Z,100431.22
2022-08-03T11:12:28.371Z,100434.06
2022-08-03T11:15:01.715Z,100430.19
2022-08-03T11:17:29.728Z,100428.56
2022-08-03T11:19:58.548Z,100433.94
2022-08-03T11:22:28.998Z,100426.09
2022-08-03T11:25:03.080Z,100431.03
2022-08-03T11:27:33.921Z,100428.59
2022-08-03T11:30:04.933Z,100423.44
2022-08-03T11:32:59.833Z,100422.81
2022-08-03T11:35:30.112Z,100419.88
2022-08-03T11:38:09.774Z,100423.09
2022-08-03T11:40:40.434Z,100418.81
2022-08-03T11:43:11.957Z,100411.25
2022-08-03T11:45:39.796Z,100416.16
2022-08-03T11:48:17.904Z,100396.25
2022-08-03T11:50:46.290Z,100404.69
2022-08-03T11:53:19.659Z,100395.94
2022-08-03T11:55:49.844Z,100411.47
2022-08-03T11:59:16.753Z,100402.78
2022-08-03T12:01:10.539Z,100402.38
2022-08-03T12:03:38.271Z,100389.63
2022-08-03T12:06:10.858Z,100392.00
2022-08-03T12:08:38.706Z,100391.59
2022-08-03T12:11:08.795Z,100384.66
2022-08-03T12:14:45.383Z,100386.78
2022-08-03T12:16:31.324Z,100388.16
2022-08-03T12:19:01.857Z,100381.25
2022-08-03T12:21:30.160Z,100383.81
2022-08-03T12:24:00.101Z,100384.22
2022-08-03T12:26:28.956Z,100386.03
2022-08-03T12:28:58.493Z,100382.63
2022-08-03T12:31:26.373Z,100373.97
2022-08-03T12:33:59.388Z,100374.56
2022-08-03T12:36:29.813Z,100373.44
2022-08-03T12:38:59.370Z,100375.84
2022-08-03T12:41:32.103Z,100376.50
2022-08-03T12:44:02.545Z,100378.06
2022-08-03T12:46:36.033Z,100371.66
2022-08-03T12:49:09.414Z,100375.53
2022-08-03T12:51:38.928Z,100380.28
2022-08-03T12:54:07.210Z,100372.88
2022-08-03T12:56:35.513Z,100368.28
2022-08-03T12:59:24.695Z,100366.16
2022-08-03T13:02:00.988Z,100362.31
2022-08-03T13:04:30.781Z,100364.03
2022-08-03T13:07:03.429Z,100356.00
2022-08-03T13:09:33.118Z,100354.69
2022-08-03T13:12:09.281Z,100354.59
2022-08-03T13:14:38.584Z,100351.00
2022-08-03T13:17:07.367Z,100348.91
2022-08-03T13:19:35.458Z,100353.06
2022-08-03T13:22:12.422Z,100354.38
2022-08-03T13:24:40.575Z,100345.97
2022-08-03T13:27:58.875Z,100347.00
2022-08-03T13:29:58.165Z,100342.19
2022-08-03T13:32:26.009Z,100345.63
2022-08-03T13:34:53.738Z,100344.25
2022-08-03T13:37:21.836Z,100332.53
2022-08-03T13:39:59.466Z,100342.78
2022-08-03T13:42:29.792Z,100333.13
2022-08-03T13:44:59.453Z,100330.03
2022-08-03T13:47:27.205Z,100330.66
2022-08-03T13:50:00.967Z,100330.97
2022-08-03T13:52:33.174Z,100316.41
2022-08-03T13:55:01.506Z,100312.16
2022-08-03T13:58:05.826Z,100314.06
2022-08-03T14:00:27.413Z,100309.22
2022-08-03T14:03:02.940Z,100314.19
2022-08-03T14:05:32.700Z,100304.94
2022-08-03T14:08:04.042Z,100300.75
2022-08-03T14:10:33.134Z,100303.50
2022-08-03T14:13:01.238Z,100298.69
2022-08-03T14:15:30.574Z,100285.59
2022-08-03T14:17:58.687Z,100284.47
2022-08-03T14:20:38.555Z,100287.53
2022-08-03T14:23:15.172Z,100284.19
2022-08-03T14:25:50.322Z,100282.34
2022-08-03T14:28:22.520Z,100291.22
2022-08-03T14:30:52.696Z,100281.41
2022-08-03T14:33:20.880Z,100285.50
2022-08-03T14:35:49.019Z,100279.94
2022-08-03T14:38:17.223Z,100274.75
2022-08-03T14:40:45.196Z,100277.34
2022-08-03T14:43:12.985Z,100275.81
2022-08-03T14:45:41.176Z,100268.00
2022-08-03T14:50:34.054Z,100263.59
2022-08-03T14:51:00.456Z,100268.19
2022-08-03T14:53:28.873Z,100262.31
2022-08-03T14:55:56.863Z,100258.91
2022-08-03T14:58:26.606Z,100264.41
2022-08-03T15:00:55.703Z,100257.75
2022-08-03T15:03:26.158Z,100267.03
2022-08-03T15:05:55.477Z,100261.13
2022-08-03T15:08:24.588Z,100252.38
2022-08-03T15:10:53.253Z,100249.88
2022-08-03T15:13:21.928Z,100251.31
2022-08-03T15:15:51.745Z,100243.75
2022-08-03T15:18:20.075Z,100245.59
2022-08-03T15:20:50.561Z,100229.00
2022-08-03T15:23:19.458Z,100235.13
2022-08-03T15:26:05.427Z,100230.34
2022-08-03T15:28:37.332Z,100229.72
2022-08-03T15:31:05.705Z,100228.28
2022-08-03T15:33:33.451Z,100221.91
2022-08-03T15:36:04.824Z,100215.59
2022-08-03T15:38:32.478Z,100213.84
2022-08-03T15:41:00.325Z,100214.16
2022-08-03T15:43:28.074Z,100207.38
2022-08-03T15:46:26.579Z,100212.53
2022-08-03T15:48:43.501Z,100212.34
2022-08-03T15:51:12.566Z,100208.84
2022-08-03T15:53:40.247Z,100202.69
2022-08-03T15:56:13.302Z,100206.66
2022-08-03T15:59:10.002Z,100199.44
2022-08-03T16:01:32.840Z,100205.75
2022-08-03T16:04:00.608Z,100195.97
2022-08-03T16:06:35.535Z,100195.69
2022-08-03T16:09:24.305Z,100187.22
2022-08-03T16:11:54.089Z,100186.00
2022-08-03T16:14:32.161Z,100192.94
2022-08-03T16:17:01.299Z,100190.56
2022-08-03T16:19:29.103Z,100194.75
2022-08-03T16:21:58.102Z,100189.44
2022-08-03T16:24:27.755Z,100186.13
2022-08-03T16:26:56.111Z,100194.25
2022-08-03T16:29:24.245Z,100186.28
2022-08-03T16:31:52.541Z,100185.72
2022-08-03T16:34:20.716Z,100184.56
2022-08-03T16:36:48.601Z,100187.41
2022-08-03T16:39:17.738Z,100189.03
2022-08-03T16:41:53.557Z,100189.03
2022-08-03T16:44:30.470Z,100181.50
2022-08-03T16:46:58.282Z,100184.53
2022-08-03T16:49:54.499Z,100178.22
2022-08-03T16:52:14.161Z,100182.09
2022-08-03T16:54:52.680Z,100182.31
2022-08-03T16:57:56.294Z,100180.25
2022-08-03T17:00:10.596Z,100167.69
2022-08-03T17:02:39.013Z,100170.34
2022-08-03T17:05:11.012Z,100176.34
2022-08-03T17:07:41.520Z,100169.91
2022-08-03T17:10:16.027Z,100175.09
2022-08-03T17:12:55.024Z,100176.81
2022-08-03T17:15:38.336Z,100173.56
2022-08-03T17:18:17.751Z,100177.66
2022-08-03T17:20:48.022Z,100174.44
2022-08-03T17:23:34.991Z,100168.75
2022-08-03T17:26:09.772Z,100164.59
2022-08-03T17:28:51.959Z,100170.47
2022-08-03T17:31:31.278Z,100173.50
2022-08-03T17:34:01.970Z,100171.88
2022-08-03T17:37:02.038Z,100170.63
2022-08-03T17:39:41.645Z,100173.69
2022-08-03T17:42:30.113Z,100175.00
2022-08-03T17:45:02.012Z,100179.16
2022-08-03T17:47:42.370Z,100171.78
2022-08-03T17:50:24.108Z,100177.84
2022-08-03T17:53:07.414Z,100176.53
2022-08-03T17:55:56.042Z,100180.44
2022-08-03T17:58:39.711Z,100180.53
2022-08-03T18:02:03.608Z,100178.47
2022-08-03T18:04:29.674Z,100178.22
2022-08-03T18:07:00.447Z,100179.34
2022-08-03T18:10:04.620Z,100178.03
2022-08-03T18:12:46.006Z,100181.34
2022-08-03T18:15:26.284Z,100178.69
2022-08-03T18:18:02.867Z,100181.47
2022-08-03T18:20:42.064Z,100187.25
2022-08-03T18:23:24.584Z,100181.00
2022-08-03T18:26:01.671Z,100188.19
2022-08-03T18:28:30.491Z,100183.31
2022-08-03T18:31:04.249Z,100184.16
2022-08-03T18:34:18.571Z,100189.44
2022-08-03T18:36:30.237Z,100188.38
2022-08-03T18:39:00.449Z,100182.69
2022-08-03T18:41:32.127Z,100184.31
2022-08-03T18:44:06.650Z,100191.66
2022-08-03T18:46:54.829Z,100188.72
2022-08-03T18:49:34.752Z,100192.38
2022-08-03T18:52:12.512Z,100191.31
2022-08-03T18:55:33.141Z,100191.06
2022-08-03T18:58:17.563Z,100194.69
2022-08-03T19:00:54.687Z,100193.63
2022-08-03T19:03:41.430Z,100193.41
2022-08-03T19:06:19.873Z,100191.50
2022-08-03T19:08:51.147Z,100192.91
2022-08-03T19:11:28.108Z,100194.28
2022-08-03T19:13:57.667Z,100198.69
2022-08-03T19:16:32.946Z,100199.31
2022-08-03T19:19:03.723Z,100202.88
2022-08-03T19:21:35.840Z,100194.47
2022-08-03T19:26:56.387Z,100209.28
2022-08-03T19:29:25.100Z,100201.34
2022-08-03T19:32:15.589Z,100204.97
2022-08-03T19:34:46.712Z,100212.09
2022-08-03T19:37:15.502Z,100211.06
2022-08-03T19:39:44.606Z,100207.25
2022-08-03T19:42:30.991Z,100212.50
2022-08-03T19:45:11.403Z,100211.41
2022-08-03T19:47:46.933Z,100216.63
2022-08-03T19:50:16.819Z,100210.91
2022-08-03T19:52:47.686Z,100206.31
2022-08-03T19:55:17.231Z,100205.22
2022-08-03T19:57:49.191Z,100210.16
2022-08-03T20:00:20.057Z,100209.94
2022-08-03T20:02:54.815Z,100209.66
2022-08-03T20:05:24.277Z,100207.50
2022-08-03T20:07:54.401Z,100213.56
2022-08-03T20:10:22.628Z,100214.94
2022-08-03T20:12:50.588Z,100215.50
2022-08-03T20:15:22.533Z,100219.63
2022-08-03T20:18:00.069Z,100206.50
2022-08-03T20:20:31.655Z,100212.53
2022-08-03T20:23:02.829Z,100212.03
2022-08-03T20:25:48.475Z,100217.22
2022-08-03T20:28:27.170Z,100209.06
2022-08-03T20:30:54.913Z,100217.56
2022-08-03T20:33:30.684Z,100216.44
2022-08-03T20:36:11.946Z,100217.28
2022-08-03T20:38:47.065Z,100211.56
2022-08-03T20:41:15.910Z,100209.38
2022-08-03T20:43:43.846Z,100212.16
2022-08-03T20:46:33.737Z,100204.50
2022-08-03T20:48:59.760Z,100213.28
2022-08-03T20:51:50.502Z,100205.63
2022-08-03T20:54:28.652Z,100208.91
2022-08-03T20:56:57.665Z,100212.78
2022-08-03T20:59:28.780Z,100214.97
2022-08-03T21:01:58.177Z,100211.69
2022-08-03T21:04:25.871Z,100210.06
2022-08-03T21:07:00.691Z,100218.53
2022-08-03T21:09:39.999Z,100204.34
2022-08-03T21:12:15.503Z,100202.97
2022-08-03T21:13:02.098Z,100201.31
2022-08-03T21:14:52.671Z,100196.97
2022-08-03T21:17:40.049Z,100201.06
2022-08-03T21:24:00.749Z,100201.66
2022-08-03T21:26:33.566Z,100203.31
2022-08-03T21:29:02.438Z,100193.19
2022-08-03T21:31:30.149Z,100187.47
2022-08-03T21:33:59.379Z,100194.84
